sensor_id;sensor_type;location;lat;lon;timestamp;P1;durP1;ratioP1;P2;durP2;ratioP2
75696;SDS011;64312;44.738;20.612;2023-01-31T00:01:17;42.25;;;17.83;;
75696;SDS011;64312;44.738;20.612;2023-01-31T00:03:44;32.75;;;15.00;;
75696;SDS011;64312;44.738;20.612;2023-01-31T00:08:49;38.92;;;16.10;;
75696;SDS011;64312;44.738;20.612;2023-01-31T00:11:16;36.65;;;16.73;;
75696;SDS011;64312;44.738;20.612;2023-01-31T00:13:43;32.40;;;14.65;;
75696;SDS011;64312;44.738;20.612;2023-01-31T00:16:10;37.08;;;15.18;;
75696;SDS011;64312;44.738;20.612;2023-01-31T00:18:36;32.97;;;15.30;;
75696;SDS011;64312;44.738;20.612;2023-01-31T00:21:03;38.45;;;15.40;;
75696;SDS011;64312;44.738;20.612;2023-01-31T00:23:33;34.67;;;15.23;;
75696;SDS011;64312;44.738;20.612;2023-01-31T00:26:06;34.67;;;15.35;;
75696;SDS011;64312;44.738;20.612;2023-01-31T00:28:34;34.70;;;16.05;;
75696;SDS011;64312;44.738;20.612;2023-01-31T00:30:59;29.73;;;13.27;;
75696;SDS011;64312;44.738;20.612;2023-01-31T00:33:25;32.97;;;15.60;;
75696;SDS011;64312;44.738;20.612;2023-01-31T00:35:51;36.55;;;14.45;;
75696;SDS011;64312;44.738;20.612;2023-01-31T00:38:16;34.80;;;15.00;;
75696;SDS011;64312;44.738;20.612;2023-01-31T00:40:50;40.22;;;16.35;;
75696;SDS011;64312;44.738;20.612;2023-01-31T00:43:16;40.30;;;15.52;;
75696;SDS011;64312;44.738;20.612;2023-01-31T00:45:42;35.85;;;15.65;;
75696;SDS011;64312;44.738;20.612;2023-01-31T00:48:08;35.53;;;13.75;;
75696;SDS011;64312;44.738;20.612;2023-01-31T00:50:33;35.30;;;15.02;;
75696;SDS011;64312;44.738;20.612;2023-01-31T00:52:59;35.22;;;15.80;;
75696;SDS011;64312;44.738;20.612;2023-01-31T00:55:24;32.40;;;17.20;;
75696;SDS011;64312;44.738;20.612;2023-01-31T00:57:50;32.30;;;14.15;;
75696;SDS011;64312;44.738;20.612;2023-01-31T01:00:16;35.55;;;15.02;;
75696;SDS011;64312;44.738;20.612;2023-01-31T01:02:42;31.88;;;13.75;;
75696;SDS011;64312;44.738;20.612;2023-01-31T01:05:07;29.67;;;12.85;;
75696;SDS011;64312;44.738;20.612;2023-01-31T01:07:33;29.23;;;13.90;;
75696;SDS011;64312;44.738;20.612;2023-01-31T01:09:59;32.28;;;14.13;;
75696;SDS011;64312;44.738;20.612;2023-01-31T01:12:24;32.03;;;13.82;;
75696;SDS011;64312;44.738;20.612;2023-01-31T01:14:50;25.42;;;11.25;;
75696;SDS011;64312;44.738;20.612;2023-01-31T01:17:15;25.20;;;12.65;;
75696;SDS011;64312;44.738;20.612;2023-01-31T01:19:41;29.48;;;15.15;;
75696;SDS011;64312;44.738;20.612;2023-01-31T01:22:07;26.65;;;13.82;;
75696;SDS011;64312;44.738;20.612;2023-01-31T01:24:33;27.45;;;14.13;;
75696;SDS011;64312;44.738;20.612;2023-01-31T01:27:01;28.45;;;12.40;;
75696;SDS011;64312;44.738;20.612;2023-01-31T01:29:29;26.95;;;12.57;;
75696;SDS011;64312;44.738;20.612;2023-01-31T01:31:55;30.85;;;14.10;;
75696;SDS011;64312;44.738;20.612;2023-01-31T01:34:21;30.08;;;13.50;;
75696;SDS011;64312;44.738;20.612;2023-01-31T01:36:47;28.23;;;13.77;;
75696;SDS011;64312;44.738;20.612;2023-01-31T01:39:14;25.88;;;13.65;;
75696;SDS011;64312;44.738;20.612;2023-01-31T01:41:41;27.92;;;12.35;;
75696;SDS011;64312;44.738;20.612;2023-01-31T01:55:33;21.13;;;11.27;;
75696;SDS011;64312;44.738;20.612;2023-01-31T01:58:05;29.38;;;12.25;;
75696;SDS011;64312;44.738;20.612;2023-01-31T02:00:34;27.17;;;12.23;;
75696;SDS011;64312;44.738;20.612;2023-01-31T02:03:02;23.10;;;11.98;;
75696;SDS011;64312;44.738;20.612;2023-01-31T02:05:31;24.10;;;11.85;;
75696;SDS011;64312;44.738;20.612;2023-01-31T02:08:01;22.75;;;11.18;;
75696;SDS011;64312;44.738;20.612;2023-01-31T02:13:06;21.85;;;10.02;;
75696;SDS011;64312;44.738;20.612;2023-01-31T02:15:32;26.90;;;11.18;;
75696;SDS011;64312;44.738;20.612;2023-01-31T02:17:58;24.40;;;10.63;;
75696;SDS011;64312;44.738;20.612;2023-01-31T02:34:33;17.90;;;8.75;;
75696;SDS011;64312;44.738;20.612;2023-01-31T02:39:55;20.55;;;8.15;;
75696;SDS011;64312;44.738;20.612;2023-01-31T02:45:09;19.45;;;8.23;;
75696;SDS011;64312;44.738;20.612;2023-01-31T02:50:18;17.20;;;7.85;;
75696;SDS011;64312;44.738;20.612;2023-01-31T02:53:01;16.27;;;7.82;;
75696;SDS011;64312;44.738;20.612;2023-01-31T02:55:37;18.75;;;8.00;;
75696;SDS011;64312;44.738;20.612;2023-01-31T02:58:31;13.70;;;7.20;;
75696;SDS011;64312;44.738;20.612;2023-01-31T03:01:00;13.85;;;7.38;;
75696;SDS011;64312;44.738;20.612;2023-01-31T03:03:29;14.57;;;7.80;;
75696;SDS011;64312;44.738;20.612;2023-01-31T03:09:13;14.40;;;7.43;;
75696;SDS011;64312;44.738;20.612;2023-01-31T03:20:29;13.50;;;7.35;;
75696;SDS011;64312;44.738;20.612;2023-01-31T03:23:03;14.55;;;7.78;;
75696;SDS011;64312;44.738;20.612;2023-01-31T03:25:34;16.13;;;8.07;;
75696;SDS011;64312;44.738;20.612;2023-01-31T03:28:05;19.30;;;7.43;;
75696;SDS011;64312;44.738;20.612;2023-01-31T03:30:37;15.63;;;6.78;;
75696;SDS011;64312;44.738;20.612;2023-01-31T03:33:44;15.70;;;6.72;;
75696;SDS011;64312;44.738;20.612;2023-01-31T03:36:27;18.67;;;7.32;;
75696;SDS011;64312;44.738;20.612;2023-01-31T03:39:05;12.25;;;5.90;;
75696;SDS011;64312;44.738;20.612;2023-01-31T03:47:25;15.05;;;7.45;;
75696;SDS011;64312;44.738;20.612;2023-01-31T03:49:55;15.10;;;7.47;;
75696;SDS011;64312;44.738;20.612;2023-01-31T03:52:36;14.73;;;6.35;;
75696;SDS011;64312;44.738;20.612;2023-01-31T03:55:15;14.35;;;7.45;;
75696;SDS011;64312;44.738;20.612;2023-01-31T03:57:45;9.93;;;5.80;;
75696;SDS011;64312;44.738;20.612;2023-01-31T04:00:16;14.68;;;7.47;;
75696;SDS011;64312;44.738;20.612;2023-01-31T04:02:51;16.10;;;9.57;;
75696;SDS011;64312;44.738;20.612;2023-01-31T04:05:22;16.67;;;8.30;;
75696;SDS011;64312;44.738;20.612;2023-01-31T04:07:55;17.33;;;9.00;;
75696;SDS011;64312;44.738;20.612;2023-01-31T04:10:23;16.30;;;7.85;;
75696;SDS011;64312;44.738;20.612;2023-01-31T04:12:50;18.00;;;8.75;;
75696;SDS011;64312;44.738;20.612;2023-01-31T04:15:16;16.92;;;8.15;;
75696;SDS011;64312;44.738;20.612;2023-01-31T04:17:43;15.43;;;8.73;;
75696;SDS011;64312;44.738;20.612;2023-01-31T04:20:09;20.08;;;8.20;;
75696;SDS011;64312;44.738;20.612;2023-01-31T04:22:36;19.08;;;8.50;;
75696;SDS011;64312;44.738;20.612;2023-01-31T04:25:02;17.10;;;7.90;;
75696;SDS011;64312;44.738;20.612;2023-01-31T04:27:28;16.88;;;8.60;;
75696;SDS011;64312;44.738;20.612;2023-01-31T04:29:54;19.63;;;7.72;;
75696;SDS011;64312;44.738;20.612;2023-01-31T04:32:20;17.42;;;8.88;;
75696;SDS011;64312;44.738;20.612;2023-01-31T04:34:45;16.83;;;7.82;;
75696;SDS011;64312;44.738;20.612;2023-01-31T04:37:11;17.70;;;8.82;;
75696;SDS011;64312;44.738;20.612;2023-01-31T04:39:37;12.40;;;6.80;;
75696;SDS011;64312;44.738;20.612;2023-01-31T04:42:03;16.02;;;8.05;;
75696;SDS011;64312;44.738;20.612;2023-01-31T04:44:28;19.27;;;8.45;;
75696;SDS011;64312;44.738;20.612;2023-01-31T04:46:54;19.27;;;8.55;;
75696;SDS011;64312;44.738;20.612;2023-01-31T04:49:20;22.05;;;8.82;;
75696;SDS011;64312;44.738;20.612;2023-01-31T04:51:45;15.07;;;7.28;;
75696;SDS011;64312;44.738;20.612;2023-01-31T04:54:11;18.60;;;7.60;;
75696;SDS011;64312;44.738;20.612;2023-01-31T04:56:37;18.02;;;8.20;;
75696;SDS011;64312;44.738;20.612;2023-01-31T04:59:02;42.42;;;16.40;;
75696;SDS011;64312;44.738;20.612;2023-01-31T05:01:28;16.35;;;7.15;;
75696;SDS011;64312;44.738;20.612;2023-01-31T05:03:55;17.15;;;8.88;;
75696;SDS011;64312;44.738;20.612;2023-01-31T05:06:21;18.50;;;7.68;;
75696;SDS011;64312;44.738;20.612;2023-01-31T05:08:46;15.68;;;7.97;;
75696;SDS011;64312;44.738;20.612;2023-01-31T05:11:12;14.52;;;7.72;;
75696;SDS011;64312;44.738;20.612;2023-01-31T05:13:38;16.92;;;8.48;;
75696;SDS011;64312;44.738;20.612;2023-01-31T05:16:05;14.18;;;7.28;;
75696;SDS011;64312;44.738;20.612;2023-01-31T05:18:31;16.75;;;7.95;;
75696;SDS011;64312;44.738;20.612;2023-01-31T05:20:59;18.30;;;8.25;;
75696;SDS011;64312;44.738;20.612;2023-01-31T05:23:26;15.40;;;8.23;;
75696;SDS011;64312;44.738;20.612;2023-01-31T05:25:52;16.42;;;7.45;;
75696;SDS011;64312;44.738;20.612;2023-01-31T05:28:18;17.30;;;7.97;;
75696;SDS011;64312;44.738;20.612;2023-01-31T05:30:44;18.52;;;9.00;;
75696;SDS011;64312;44.738;20.612;2023-01-31T05:33:09;14.77;;;7.53;;
75696;SDS011;64312;44.738;20.612;2023-01-31T05:35:36;18.77;;;7.70;;
75696;SDS011;64312;44.738;20.612;2023-01-31T05:38:02;10.80;;;6.75;;
75696;SDS011;64312;44.738;20.612;2023-01-31T05:40:29;11.50;;;5.47;;
75696;SDS011;64312;44.738;20.612;2023-01-31T05:42:55;16.98;;;7.93;;
75696;SDS011;64312;44.738;20.612;2023-01-31T05:45:22;20.48;;;8.27;;
75696;SDS011;64312;44.738;20.612;2023-01-31T05:47:48;11.68;;;6.30;;
75696;SDS011;64312;44.738;20.612;2023-01-31T05:50:15;17.75;;;7.28;;
75696;SDS011;64312;44.738;20.612;2023-01-31T05:52:41;11.73;;;6.53;;
75696;SDS011;64312;44.738;20.612;2023-01-31T05:55:07;17.10;;;7.50;;
75696;SDS011;64312;44.738;20.612;2023-01-31T05:57:33;15.10;;;6.70;;
75696;SDS011;64312;44.738;20.612;2023-01-31T05:59:58;11.85;;;6.97;;
75696;SDS011;64312;44.738;20.612;2023-01-31T06:02:25;15.15;;;6.82;;
75696;SDS011;64312;44.738;20.612;2023-01-31T06:04:50;11.57;;;6.32;;
75696;SDS011;64312;44.738;20.612;2023-01-31T06:07:16;15.13;;;6.75;;
75696;SDS011;64312;44.738;20.612;2023-01-31T06:09:42;17.08;;;6.55;;
75696;SDS011;64312;44.738;20.612;2023-01-31T06:12:11;18.27;;;8.52;;
75696;SDS011;64312;44.738;20.612;2023-01-31T06:14:39;15.57;;;7.80;;
75696;SDS011;64312;44.738;20.612;2023-01-31T06:17:05;15.00;;;6.97;;
75696;SDS011;64312;44.738;20.612;2023-01-31T06:19:31;20.50;;;9.13;;
75696;SDS011;64312;44.738;20.612;2023-01-31T06:21:56;16.83;;;8.27;;
75696;SDS011;64312;44.738;20.612;2023-01-31T06:24:22;16.50;;;8.02;;
75696;SDS011;64312;44.738;20.612;2023-01-31T06:26:47;12.55;;;7.22;;
75696;SDS011;64312;44.738;20.612;2023-01-31T06:29:13;13.93;;;8.02;;
75696;SDS011;64312;44.738;20.612;2023-01-31T06:31:42;17.73;;;8.45;;
75696;SDS011;64312;44.738;20.612;2023-01-31T06:34:09;14.30;;;7.65;;
75696;SDS011;64312;44.738;20.612;2023-01-31T06:36:35;15.00;;;7.03;;
75696;SDS011;64312;44.738;20.612;2023-01-31T06:39:01;17.65;;;7.55;;
75696;SDS011;64312;44.738;20.612;2023-01-31T06:41:28;13.73;;;5.78;;
75696;SDS011;64312;44.738;20.612;2023-01-31T06:43:55;9.55;;;5.22;;
75696;SDS011;64312;44.738;20.612;2023-01-31T06:46:20;15.43;;;6.70;;
75696;SDS011;64312;44.738;20.612;2023-01-31T06:48:46;11.65;;;6.05;;
75696;SDS011;64312;44.738;20.612;2023-01-31T06:51:15;12.75;;;6.00;;
75696;SDS011;64312;44.738;20.612;2023-01-31T06:53:41;11.05;;;5.63;;
75696;SDS011;64312;44.738;20.612;2023-01-31T06:56:07;11.32;;;5.38;;
75696;SDS011;64312;44.738;20.612;2023-01-31T06:58:34;15.90;;;6.57;;
75696;SDS011;64312;44.738;20.612;2023-01-31T07:01:06;11.40;;;6.55;;
75696;SDS011;64312;44.738;20.612;2023-01-31T07:03:34;15.60;;;7.28;;
75696;SDS011;64312;44.738;20.612;2023-01-31T07:05:59;17.42;;;8.05;;
75696;SDS011;64312;44.738;20.612;2023-01-31T07:08:25;16.58;;;7.97;;
75696;SDS011;64312;44.738;20.612;2023-01-31T07:10:51;13.88;;;7.20;;
75696;SDS011;64312;44.738;20.612;2023-01-31T07:13:16;12.13;;;6.22;;
75696;SDS011;64312;44.738;20.612;2023-01-31T07:15:44;14.60;;;6.72;;
75696;SDS011;64312;44.738;20.612;2023-01-31T07:18:09;12.73;;;6.43;;
75696;SDS011;64312;44.738;20.612;2023-01-31T07:20:36;12.93;;;6.53;;
75696;SDS011;64312;44.738;20.612;2023-01-31T07:23:04;10.98;;;6.43;;
75696;SDS011;64312;44.738;20.612;2023-01-31T07:25:30;14.50;;;6.82;;
75696;SDS011;64312;44.738;20.612;2023-01-31T07:27:59;12.23;;;6.22;;
75696;SDS011;64312;44.738;20.612;2023-01-31T07:30:26;17.08;;;8.13;;
75696;SDS011;64312;44.738;20.612;2023-01-31T07:32:52;13.82;;;7.78;;
75696;SDS011;64312;44.738;20.612;2023-01-31T07:35:18;13.43;;;6.72;;
75696;SDS011;64312;44.738;20.612;2023-01-31T07:37:44;15.10;;;6.80;;
75696;SDS011;64312;44.738;20.612;2023-01-31T07:40:11;14.73;;;6.85;;
75696;SDS011;64312;44.738;20.612;2023-01-31T07:42:38;13.90;;;6.80;;
75696;SDS011;64312;44.738;20.612;2023-01-31T07:45:04;13.93;;;7.25;;
75696;SDS011;64312;44.738;20.612;2023-01-31T07:47:31;14.13;;;7.40;;
75696;SDS011;64312;44.738;20.612;2023-01-31T07:49:56;13.43;;;8.07;;
75696;SDS011;64312;44.738;20.612;2023-01-31T07:52:22;16.33;;;8.05;;
75696;SDS011;64312;44.738;20.612;2023-01-31T07:54:48;13.40;;;6.70;;
75696;SDS011;64312;44.738;20.612;2023-01-31T07:57:13;14.57;;;7.85;;
75696;SDS011;64312;44.738;20.612;2023-01-31T07:59:42;15.13;;;6.85;;
75696;SDS011;64312;44.738;20.612;2023-01-31T08:02:11;17.02;;;7.75;;
75696;SDS011;64312;44.738;20.612;2023-01-31T08:04:57;16.85;;;7.30;;
75696;SDS011;64312;44.738;20.612;2023-01-31T08:07:22;14.07;;;6.25;;
75696;SDS011;64312;44.738;20.612;2023-01-31T08:09:48;12.35;;;7.72;;
75696;SDS011;64312;44.738;20.612;2023-01-31T08:12:14;12.90;;;6.63;;
75696;SDS011;64312;44.738;20.612;2023-01-31T08:14:41;16.00;;;7.57;;
75696;SDS011;64312;44.738;20.612;2023-01-31T08:17:07;12.90;;;7.03;;
75696;SDS011;64312;44.738;20.612;2023-01-31T08:19:34;12.82;;;6.63;;
75696;SDS011;64312;44.738;20.612;2023-01-31T08:22:00;15.30;;;6.78;;
75696;SDS011;64312;44.738;20.612;2023-01-31T08:24:26;12.73;;;6.28;;
75696;SDS011;64312;44.738;20.612;2023-01-31T08:26:52;12.93;;;5.93;;
75696;SDS011;64312;44.738;20.612;2023-01-31T08:29:18;11.02;;;5.32;;
75696;SDS011;64312;44.738;20.612;2023-01-31T08:31:44;7.55;;;4.13;;
75696;SDS011;64312;44.738;20.612;2023-01-31T08:34:10;8.57;;;3.80;;
75696;SDS011;64312;44.738;20.612;2023-01-31T08:36:35;9.85;;;4.20;;
75696;SDS011;64312;44.738;20.612;2023-01-31T08:39:02;6.70;;;3.58;;
75696;SDS011;64312;44.738;20.612;2023-01-31T08:41:28;7.55;;;3.53;;
75696;SDS011;64312;44.738;20.612;2023-01-31T08:43:54;8.13;;;3.35;;
75696;SDS011;64312;44.738;20.612;2023-01-31T08:46:25;6.28;;;3.55;;
75696;SDS011;64312;44.738;20.612;2023-01-31T08:48:54;6.15;;;3.50;;
75696;SDS011;64312;44.738;20.612;2023-01-31T08:51:20;7.75;;;3.40;;
75696;SDS011;64312;44.738;20.612;2023-01-31T08:53:46;9.20;;;4.22;;
75696;SDS011;64312;44.738;20.612;2023-01-31T08:56:13;12.27;;;5.18;;
75696;SDS011;64312;44.738;20.612;2023-01-31T08:58:41;11.80;;;5.03;;
75696;SDS011;64312;44.738;20.612;2023-01-31T09:01:08;8.00;;;4.38;;
75696;SDS011;64312;44.738;20.612;2023-01-31T09:03:37;9.77;;;3.97;;
75696;SDS011;64312;44.738;20.612;2023-01-31T09:06:04;4.57;;;3.20;;
75696;SDS011;64312;44.738;20.612;2023-01-31T09:08:32;7.15;;;3.70;;
75696;SDS011;64312;44.738;20.612;2023-01-31T09:10:58;15.27;;;6.43;;
75696;SDS011;64312;44.738;20.612;2023-01-31T09:13:28;7.75;;;3.40;;
75696;SDS011;64312;44.738;20.612;2023-01-31T09:15:58;8.88;;;4.10;;
75696;SDS011;64312;44.738;20.612;2023-01-31T09:18:29;6.53;;;2.60;;
75696;SDS011;64312;44.738;20.612;2023-01-31T09:21:01;4.65;;;3.25;;
75696;SDS011;64312;44.738;20.612;2023-01-31T09:23:28;4.82;;;3.03;;
75696;SDS011;64312;44.738;20.612;2023-01-31T09:25:54;4.80;;;2.42;;
75696;SDS011;64312;44.738;20.612;2023-01-31T09:28:21;9.60;;;2.50;;
75696;SDS011;64312;44.738;20.612;2023-01-31T09:30:47;8.80;;;3.90;;
75696;SDS011;64312;44.738;20.612;2023-01-31T09:33:14;4.57;;;2.97;;
75696;SDS011;64312;44.738;20.612;2023-01-31T09:35:40;9.05;;;3.13;;
75696;SDS011;64312;44.738;20.612;2023-01-31T09:38:07;9.32;;;3.15;;
75696;SDS011;64312;44.738;20.612;2023-01-31T09:40:33;8.90;;;3.45;;
75696;SDS011;64312;44.738;20.612;2023-01-31T09:43:03;4.78;;;2.80;;
75696;SDS011;64312;44.738;20.612;2023-01-31T09:45:30;9.10;;;2.97;;
75696;SDS011;64312;44.738;20.612;2023-01-31T09:47:59;5.18;;;3.50;;
75696;SDS011;64312;44.738;20.612;2023-01-31T09:50:38;8.98;;;3.15;;
75696;SDS011;64312;44.738;20.612;2023-01-31T09:53:15;6.43;;;2.95;;
75696;SDS011;64312;44.738;20.612;2023-01-31T10:00:53;6.80;;;2.38;;
75696;SDS011;64312;44.738;20.612;2023-01-31T10:03:34;7.25;;;3.30;;
75696;SDS011;64312;44.738;20.612;2023-01-31T10:06:23;7.68;;;3.78;;
75696;SDS011;64312;44.738;20.612;2023-01-31T10:14:08;4.30;;;2.45;;
75696;SDS011;64312;44.738;20.612;2023-01-31T10:16:46;8.85;;;3.22;;
75696;SDS011;64312;44.738;20.612;2023-01-31T10:19:28;6.80;;;3.28;;
75696;SDS011;64312;44.738;20.612;2023-01-31T10:22:06;3.88;;;2.90;;
75696;SDS011;64312;44.738;20.612;2023-01-31T10:24:35;4.63;;;2.30;;
75696;SDS011;64312;44.738;20.612;2023-01-31T10:27:09;6.85;;;2.42;;
75696;SDS011;64312;44.738;20.612;2023-01-31T10:29:46;7.45;;;2.63;;
75696;SDS011;64312;44.738;20.612;2023-01-31T10:32:20;7.03;;;2.72;;
75696;SDS011;64312;44.738;20.612;2023-01-31T10:34:54;4.38;;;2.50;;
75696;SDS011;64312;44.738;20.612;2023-01-31T10:37:42;6.43;;;3.50;;
75696;SDS011;64312;44.738;20.612;2023-01-31T10:40:15;4.40;;;2.25;;
75696;SDS011;64312;44.738;20.612;2023-01-31T10:42:54;7.13;;;3.13;;
75696;SDS011;64312;44.738;20.612;2023-01-31T10:45:26;6.18;;;3.05;;
75696;SDS011;64312;44.738;20.612;2023-01-31T10:48:03;8.38;;;3.75;;
75696;SDS011;64312;44.738;20.612;2023-01-31T10:50:32;6.00;;;3.28;;
75696;SDS011;64312;44.738;20.612;2023-01-31T10:58:25;4.45;;;3.10;;
75696;SDS011;64312;44.738;20.612;2023-01-31T11:00:51;5.95;;;2.30;;
75696;SDS011;64312;44.738;20.612;2023-01-31T11:03:17;11.05;;;2.63;;
75696;SDS011;64312;44.738;20.612;2023-01-31T11:05:48;4.50;;;2.95;;
75696;SDS011;64312;44.738;20.612;2023-01-31T11:09:01;4.45;;;2.45;;
75696;SDS011;64312;44.738;20.612;2023-01-31T11:11:09;4.88;;;2.60;;
75696;SDS011;64312;44.738;20.612;2023-01-31T11:13:59;8.63;;;4.18;;
75696;SDS011;64312;44.738;20.612;2023-01-31T11:16:33;6.95;;;3.03;;
75696;SDS011;64312;44.738;20.612;2023-01-31T11:19:02;7.20;;;3.10;;
75696;SDS011;64312;44.738;20.612;2023-01-31T11:21:40;12.10;;;5.40;;
75696;SDS011;64312;44.738;20.612;2023-01-31T11:24:27;8.25;;;3.15;;
75696;SDS011;64312;44.738;20.612;2023-01-31T11:26:55;6.03;;;3.22;;
75696;SDS011;64312;44.738;20.612;2023-01-31T11:32:05;6.45;;;3.25;;
75696;SDS011;64312;44.738;20.612;2023-01-31T11:34:53;6.70;;;3.28;;
75696;SDS011;64312;44.738;20.612;2023-01-31T11:37:20;8.20;;;3.60;;
75696;SDS011;64312;44.738;20.612;2023-01-31T11:39:59;6.97;;;3.55;;
75696;SDS011;64312;44.738;20.612;2023-01-31T11:42:50;9.50;;;3.50;;
75696;SDS011;64312;44.738;20.612;2023-01-31T11:45:21;9.10;;;3.13;;
75696;SDS011;64312;44.738;20.612;2023-01-31T11:47:53;5.55;;;3.10;;
75696;SDS011;64312;44.738;20.612;2023-01-31T11:52:59;4.65;;;2.78;;
75696;SDS011;64312;44.738;20.612;2023-01-31T11:55:33;7.20;;;3.25;;
75696;SDS011;64312;44.738;20.612;2023-01-31T11:58:02;10.55;;;3.42;;
75696;SDS011;64312;44.738;20.612;2023-01-31T12:00:55;7.20;;;4.43;;
75696;SDS011;64312;44.738;20.612;2023-01-31T12:03:55;9.55;;;4.40;;
75696;SDS011;64312;44.738;20.612;2023-01-31T12:06:33;7.22;;;3.30;;
75696;SDS011;64312;44.738;20.612;2023-01-31T12:09:02;5.65;;;3.25;;
75696;SDS011;64312;44.738;20.612;2023-01-31T12:11:34;5.45;;;3.08;;
75696;SDS011;64312;44.738;20.612;2023-01-31T12:14:13;5.80;;;2.60;;
75696;SDS011;64312;44.738;20.612;2023-01-31T12:16:41;5.53;;;3.08;;
75696;SDS011;64312;44.738;20.612;2023-01-31T12:35:54;10.13;;;5.53;;
75696;SDS011;64312;44.738;20.612;2023-01-31T12:38:35;8.05;;;5.47;;
75696;SDS011;64312;44.738;20.612;2023-01-31T12:41:28;9.25;;;3.70;;
75696;SDS011;64312;44.738;20.612;2023-01-31T12:52:32;8.40;;;4.88;;
75696;SDS011;64312;44.738;20.612;2023-01-31T12:58:07;13.27;;;5.72;;
75696;SDS011;64312;44.738;20.612;2023-01-31T13:01:16;10.75;;;4.97;;
75696;SDS011;64312;44.738;20.612;2023-01-31T13:06:18;15.65;;;7.03;;
75696;SDS011;64312;44.738;20.612;2023-01-31T13:08:55;5.57;;;2.92;;
75696;SDS011;64312;44.738;20.612;2023-01-31T13:11:29;5.88;;;3.30;;
75696;SDS011;64312;44.738;20.612;2023-01-31T13:14:02;6.20;;;3.22;;
75696;SDS011;64312;44.738;20.612;2023-01-31T13:16:34;9.65;;;3.03;;
75696;SDS011;64312;44.738;20.612;2023-01-31T13:19:05;8.10;;;3.72;;
75696;SDS011;64312;44.738;20.612;2023-01-31T13:21:37;9.50;;;3.22;;
75696;SDS011;64312;44.738;20.612;2023-01-31T13:27:15;5.90;;;2.53;;
75696;SDS011;64312;44.738;20.612;2023-01-31T13:29:47;5.88;;;3.60;;
75696;SDS011;64312;44.738;20.612;2023-01-31T13:32:20;9.63;;;4.53;;
75696;SDS011;64312;44.738;20.612;2023-01-31T13:34:57;10.88;;;4.68;;
75696;SDS011;64312;44.738;20.612;2023-01-31T13:37:28;6.40;;;3.65;;
75696;SDS011;64312;44.738;20.612;2023-01-31T13:40:02;8.90;;;3.97;;
75696;SDS011;64312;44.738;20.612;2023-01-31T13:42:43;8.90;;;4.00;;
75696;SDS011;64312;44.738;20.612;2023-01-31T13:45:11;7.43;;;4.05;;
75696;SDS011;64312;44.738;20.612;2023-01-31T13:47:51;17.88;;;9.48;;
75696;SDS011;64312;44.738;20.612;2023-01-31T13:52:57;7.57;;;4.40;;
75696;SDS011;64312;44.738;20.612;2023-01-31T13:55:40;5.78;;;3.72;;
75696;SDS011;64312;44.738;20.612;2023-01-31T13:58:23;8.23;;;3.13;;
75696;SDS011;64312;44.738;20.612;2023-01-31T14:00:57;5.13;;;3.05;;
75696;SDS011;64312;44.738;20.612;2023-01-31T14:03:29;3.92;;;2.85;;
75696;SDS011;64312;44.738;20.612;2023-01-31T14:05:56;4.13;;;3.05;;
75696;SDS011;64312;44.738;20.612;2023-01-31T14:13:47;5.15;;;2.97;;
75696;SDS011;64312;44.738;20.612;2023-01-31T14:19:07;1.77;;;1.45;;
75696;SDS011;64312;44.738;20.612;2023-01-31T14:49:35;10.45;;;4.10;;
75696;SDS011;64312;44.738;20.612;2023-01-31T14:55:30;10.70;;;4.90;;
75696;SDS011;64312;44.738;20.612;2023-01-31T14:58:02;6.18;;;4.63;;
75696;SDS011;64312;44.738;20.612;2023-01-31T15:00:37;5.43;;;3.17;;
75696;SDS011;64312;44.738;20.612;2023-01-31T15:08:39;8.40;;;4.28;;
75696;SDS011;64312;44.738;20.612;2023-01-31T15:13:51;10.48;;;6.32;;
75696;SDS011;64312;44.738;20.612;2023-01-31T15:16:19;10.52;;;4.63;;
75696;SDS011;64312;44.738;20.612;2023-01-31T15:21:47;13.40;;;5.75;;
75696;SDS011;64312;44.738;20.612;2023-01-31T15:26:59;29.55;;;16.35;;
75696;SDS011;64312;44.738;20.612;2023-01-31T15:29:37;31.63;;;18.77;;
75696;SDS011;64312;44.738;20.612;2023-01-31T15:32:26;21.10;;;11.55;;
75696;SDS011;64312;44.738;20.612;2023-01-31T15:35:06;26.65;;;11.05;;
75696;SDS011;64312;44.738;20.612;2023-01-31T15:37:37;27.10;;;12.50;;
75696;SDS011;64312;44.738;20.612;2023-01-31T15:40:19;19.27;;;11.00;;
75696;SDS011;64312;44.738;20.612;2023-01-31T15:42:48;29.23;;;13.07;;
75696;SDS011;64312;44.738;20.612;2023-01-31T15:48:01;25.88;;;12.02;;
75696;SDS011;64312;44.738;20.612;2023-01-31T15:50:33;17.75;;;8.98;;
75696;SDS011;64312;44.738;20.612;2023-01-31T15:53:03;11.18;;;5.88;;
75696;SDS011;64312;44.738;20.612;2023-01-31T15:55:30;12.38;;;5.80;;
75696;SDS011;64312;44.738;20.612;2023-01-31T15:57:59;14.60;;;8.27;;
75696;SDS011;64312;44.738;20.612;2023-01-31T16:00:31;9.57;;;4.38;;
75696;SDS011;64312;44.738;20.612;2023-01-31T16:03:00;9.73;;;4.72;;
75696;SDS011;64312;44.738;20.612;2023-01-31T16:05:33;9.18;;;5.20;;
75696;SDS011;64312;44.738;20.612;2023-01-31T16:08:02;9.52;;;3.30;;
75696;SDS011;64312;44.738;20.612;2023-01-31T16:10:29;6.22;;;3.15;;
75696;SDS011;64312;44.738;20.612;2023-01-31T16:12:57;5.28;;;2.85;;
75696;SDS011;64312;44.738;20.612;2023-01-31T16:15:26;5.13;;;3.33;;
75696;SDS011;64312;44.738;20.612;2023-01-31T16:17:54;8.95;;;3.83;;
75696;SDS011;64312;44.738;20.612;2023-01-31T16:26:03;7.65;;;3.95;;
75696;SDS011;64312;44.738;20.612;2023-01-31T16:28:53;9.15;;;5.10;;
75696;SDS011;64312;44.738;20.612;2023-01-31T16:31:23;9.48;;;4.20;;
75696;SDS011;64312;44.738;20.612;2023-01-31T16:33:53;10.38;;;4.93;;
75696;SDS011;64312;44.738;20.612;2023-01-31T16:37:07;5.65;;;3.65;;
75696;SDS011;64312;44.738;20.612;2023-01-31T16:40:00;7.45;;;3.95;;
75696;SDS011;64312;44.738;20.612;2023-01-31T16:42:20;7.70;;;4.40;;
75696;SDS011;64312;44.738;20.612;2023-01-31T16:44:50;5.93;;;3.33;;
75696;SDS011;64312;44.738;20.612;2023-01-31T16:52:47;9.13;;;3.88;;
75696;SDS011;64312;44.738;20.612;2023-01-31T16:55:19;11.20;;;5.32;;
75696;SDS011;64312;44.738;20.612;2023-01-31T16:57:46;12.77;;;5.30;;
75696;SDS011;64312;44.738;20.612;2023-01-31T17:02:52;15.13;;;8.85;;
75696;SDS011;64312;44.738;20.612;2023-01-31T17:05:24;26.42;;;11.57;;
75696;SDS011;64312;44.738;20.612;2023-01-31T17:07:54;18.33;;;7.95;;
75696;SDS011;64312;44.738;20.612;2023-01-31T17:10:22;14.50;;;7.20;;
75696;SDS011;64312;44.738;20.612;2023-01-31T17:15:29;21.80;;;9.13;;
75696;SDS011;64312;44.738;20.612;2023-01-31T17:17:55;17.48;;;8.52;;
75696;SDS011;64312;44.738;20.612;2023-01-31T17:20:21;19.52;;;8.90;;
75696;SDS011;64312;44.738;20.612;2023-01-31T17:22:47;17.75;;;7.70;;
75696;SDS011;64312;44.738;20.612;2023-01-31T17:25:14;17.73;;;9.55;;
75696;SDS011;64312;44.738;20.612;2023-01-31T17:27:43;21.92;;;8.55;;
75696;SDS011;64312;44.738;20.612;2023-01-31T17:30:10;14.88;;;8.07;;
75696;SDS011;64312;44.738;20.612;2023-01-31T17:32:37;17.55;;;7.55;;
75696;SDS011;64312;44.738;20.612;2023-01-31T17:35:26;19.88;;;9.35;;
75696;SDS011;64312;44.738;20.612;2023-01-31T17:37:53;24.33;;;10.98;;
75696;SDS011;64312;44.738;20.612;2023-01-31T17:40:19;26.70;;;10.75;;
75696;SDS011;64312;44.738;20.612;2023-01-31T17:42:45;28.48;;;10.75;;
75696;SDS011;64312;44.738;20.612;2023-01-31T17:45:15;29.65;;;12.15;;
75696;SDS011;64312;44.738;20.612;2023-01-31T17:47:43;30.08;;;13.93;;